Etusivu
METAR-TAF:

METAR-TAF

Lentoasemat :

Sandnessjøen, Norja

Leveyspiiri: 65-58N, Pituuspiiri: 012-28E, korkeus merenpinnasta: 1 m

Tämänhetkinen sää

Tämä raportti tehtiin 39 minuuttia sitten, kello 16.50 UTC
Tuuli 12 kn kaakosta, vaihdellen idän/koillisen ja etelän välillä
Lämpötila 27°C
Kosteus 39%
Ilmanpaine 1007 hPa
Näkyvyys 10 km tai enemmän
ei pilviä alle 1500 m:ssä eikä cumulonimbus-pilviä

METAR: ENST 211650Z 14012KT 070V190 CAVOK 27/12 Q1007 RMK WIND 300FT 13018G29KT

Aika: 19:29 (17:29 UTC)

Sääennuste

Tämä raportti tehtiin 3 tuntia ja 29 minuuttia sitten, kello 14.00 UTC
Ennuste voimassa 21. päivästä klo 15 UTC - 21. päivään klo 21 UTC
Tuuli 8 kn idästä/kaakosta
Näkyvyys 10 km tai enemmän
Muutamia pilviä 5000 ft:n korkeudessa
Ajoittain
21. päivästä klo 15 UTC - 21. päivään klo 21 UTC
Tuuli 10 kn eri suunnista puuskistuen 20 kn:hen

TAF: ENST 211400Z 2115/2121 12008KT 9999 FEW050 TEMPO 2115/2121 VRB10G20KT

Säähavainnot ja -ennusteet yli 4000 lentoasemalta (METAR- ja TAF-raportit).

Käytössä olevat sääasemat on merkitty karttaan keltaisilla ja punaisilla pisteillä.

Aseta hiiri pisteen päälle nähdäksesi sääaseman nimen.

Klikkaa sitten nähdäksesi säähavainnot ja -ennusteet.

Kartan vaihtaminen: klikkaa mustalla rastilla varustettuja vihreitä pisteitä, niin voit zoomata sisään; viivalla varustettua vihreää pistettä, niin voit zoomata ulos tai vihreitä nuolia, niin pääset viereisille kartoille.


METAR-TAF: